sensor_id;sensor_type;location;lat;lon;timestamp;pressure;altitude;pressure_sealevel;temperature;humidity
52343;BME280;38277;51.972;4.624;2022-08-01T00:08:05;101880.0;;;20.7;81.0
52343;BME280;38277;51.972;4.624;2022-08-01T00:12:29;101880.0;;;20.8;81.0
52343;BME280;38277;51.972;4.624;2022-08-01T00:30:54;101900.0;;;20.7;81.0
52343;BME280;38277;51.972;4.624;2022-08-01T00:39:52;101900.0;;;20.7;81.5
52343;BME280;38277;51.972;4.624;2022-08-01T00:44:09;101890.0;;;20.7;81.5
52343;BME280;38277;51.972;4.624;2022-08-01T00:48:29;101890.0;;;20.7;81.5
52343;BME280;38277;51.972;4.624;2022-08-01T00:53:08;101890.0;;;20.7;81.5
52343;BME280;38277;51.972;4.624;2022-08-01T01:11:17;101880.0;;;20.7;82.0
52343;BME280;38277;51.972;4.624;2022-08-01T01:15:33;101870.0;;;20.7;82.5
52343;BME280;38277;51.972;4.624;2022-08-01T01:33:29;101870.0;;;20.5;83.0
52343;BME280;38277;51.972;4.624;2022-08-01T01:38:42;101880.0;;;20.5;83.0
52343;BME280;38277;51.972;4.624;2022-08-01T01:42:47;101880.0;;;20.4;83.0
52343;BME280;38277;51.972;4.624;2022-08-01T01:47:34;101880.0;;;20.4;83.0
52343;BME280;38277;51.972;4.624;2022-08-01T01:51:44;101880.0;;;20.3;83.0
52343;BME280;38277;51.972;4.624;2022-08-01T01:56:16;101880.0;;;20.3;83.5
52343;BME280;38277;51.972;4.624;2022-08-01T02:00:55;101880.0;;;20.4;83.5
52343;BME280;38277;51.972;4.624;2022-08-01T02:05:11;101890.0;;;20.4;83.5
52343;BME280;38277;51.972;4.624;2022-08-01T02:09:52;101890.0;;;20.4;83.5
52343;BME280;38277;51.972;4.624;2022-08-01T02:23:28;101890.0;;;20.3;84.0
52343;BME280;38277;51.972;4.624;2022-08-01T02:28:04;101890.0;;;20.3;84.0
52343;BME280;38277;51.972;4.624;2022-08-01T02:32:36;101890.0;;;20.3;84.0
52343;BME280;38277;51.972;4.624;2022-08-01T02:45:47;101890.0;;;20.3;83.5
52343;BME280;38277;51.972;4.624;2022-08-01T02:50:20;101890.0;;;20.2;83.5
52343;BME280;38277;51.972;4.624;2022-08-01T02:54:37;101890.0;;;20.2;83.5
52343;BME280;38277;51.972;4.624;2022-08-01T02:59:05;101890.0;;;20.2;83.5
52343;BME280;38277;51.972;4.624;2022-08-01T03:03:45;101890.0;;;20.1;83.5
52343;BME280;38277;51.972;4.624;2022-08-01T03:08:16;101890.0;;;20.0;83.5
52343;BME280;38277;51.972;4.624;2022-08-01T03:12:45;101900.0;;;19.9;83.5
52343;BME280;38277;51.972;4.624;2022-08-01T03:17:15;101900.0;;;19.8;83.5
52343;BME280;38277;51.972;4.624;2022-08-01T03:21:44;101900.0;;;19.8;84.0
52343;BME280;38277;51.972;4.624;2022-08-01T03:35:15;101910.0;;;19.7;84.5
52343;BME280;38277;51.972;4.624;2022-08-01T03:39:33;101900.0;;;19.7;85.0
52343;BME280;38277;51.972;4.624;2022-08-01T03:44:33;101910.0;;;19.8;85.0
52343;BME280;38277;51.972;4.624;2022-08-01T03:48:52;101910.0;;;19.8;85.0
52343;BME280;38277;51.972;4.624;2022-08-01T03:53:01;101910.0;;;19.8;85.0
52343;BME280;38277;51.972;4.624;2022-08-01T03:57:40;101900.0;;;19.9;85.0
52343;BME280;38277;51.972;4.624;2022-08-01T04:02:14;101910.0;;;19.9;85.0
52343;BME280;38277;51.972;4.624;2022-08-01T04:06:56;101910.0;;;19.9;85.0
52343;BME280;38277;51.972;4.624;2022-08-01T04:11:09;101900.0;;;20.0;85.0
52343;BME280;38277;51.972;4.624;2022-08-01T04:15:52;101900.0;;;20.0;84.5
52343;BME280;38277;51.972;4.624;2022-08-01T04:20:21;101890.0;;;20.0;84.5
52343;BME280;38277;51.972;4.624;2022-08-01T04:24:28;101900.0;;;19.9;84.0
52343;BME280;38277;51.972;4.624;2022-08-01T04:29:26;101910.0;;;19.8;84.0
52343;BME280;38277;51.972;4.624;2022-08-01T04:47:06;101920.0;;;19.7;84.5
52343;BME280;38277;51.972;4.624;2022-08-01T04:51:53;101910.0;;;19.7;85.0
52343;BME280;38277;51.972;4.624;2022-08-01T05:05:24;101930.0;;;19.8;84.5
52343;BME280;38277;51.972;4.624;2022-08-01T05:09:49;101930.0;;;19.9;84.5
52343;BME280;38277;51.972;4.624;2022-08-01T05:23:22;101930.0;;;20.1;84.0
52343;BME280;38277;51.972;4.624;2022-08-01T05:27:51;101930.0;;;20.2;84.0
52343;BME280;38277;51.972;4.624;2022-08-01T05:32:06;101930.0;;;20.2;84.0
52343;BME280;38277;51.972;4.624;2022-08-01T05:50:35;101940.0;;;20.7;83.5
52343;BME280;38277;51.972;4.624;2022-08-01T05:54:26;101940.0;;;20.9;83.0
52343;BME280;38277;51.972;4.624;2022-08-01T06:08:32;101960.0;;;21.2;81.5
52343;BME280;38277;51.972;4.624;2022-08-01T06:17:11;101960.0;;;21.3;79.0
52343;BME280;38277;51.972;4.624;2022-08-01T06:21:35;101970.0;;;21.3;78.0
52343;BME280;38277;51.972;4.624;2022-08-01T06:25:55;101960.0;;;21.2;78.0
52343;BME280;38277;51.972;4.624;2022-08-01T06:35:28;101970.0;;;21.3;78.5
52343;BME280;38277;51.972;4.624;2022-08-01T06:39:23;101970.0;;;21.4;78.5
52343;BME280;38277;51.972;4.624;2022-08-01T06:44:15;101980.0;;;21.4;78.0
52343;BME280;38277;51.972;4.624;2022-08-01T06:48:47;101980.0;;;21.4;78.0
52343;BME280;38277;51.972;4.624;2022-08-01T06:53:09;101990.0;;;21.3;78.0
52343;BME280;38277;51.972;4.624;2022-08-01T06:57:47;101990.0;;;21.4;78.5
52343;BME280;38277;51.972;4.624;2022-08-01T07:02:19;101980.0;;;21.6;78.5
52343;BME280;38277;51.972;4.624;2022-08-01T07:06:38;101990.0;;;21.7;77.5
52343;BME280;38277;51.972;4.624;2022-08-01T07:11:02;102000.0;;;21.7;76.5
52343;BME280;38277;51.972;4.624;2022-08-01T07:15:25;102000.0;;;21.5;76.0
52343;BME280;38277;51.972;4.624;2022-08-01T07:20:03;102000.0;;;21.2;76.5
52343;BME280;38277;51.972;4.624;2022-08-01T07:29:10;102010.0;;;20.9;77.5
52343;BME280;38277;51.972;4.624;2022-08-01T07:33:25;102010.0;;;20.8;78.0
52343;BME280;38277;51.972;4.624;2022-08-01T07:47:34;102030.0;;;20.9;78.0
52343;BME280;38277;51.972;4.624;2022-08-01T07:51:32;102040.0;;;21.0;78.0
52343;BME280;38277;51.972;4.624;2022-08-01T07:56:07;102040.0;;;21.0;77.0
52343;BME280;38277;51.972;4.624;2022-08-01T08:00:33;102040.0;;;20.9;76.5
52343;BME280;38277;51.972;4.624;2022-08-01T08:05:14;102060.0;;;20.8;76.0
52343;BME280;38277;51.972;4.624;2022-08-01T08:09:42;102060.0;;;20.8;76.0
52343;BME280;38277;51.972;4.624;2022-08-01T08:14:13;102050.0;;;20.8;76.0
52343;BME280;38277;51.972;4.624;2022-08-01T08:23:02;102050.0;;;21.2;73.0
52343;BME280;38277;51.972;4.624;2022-08-01T08:27:36;102060.0;;;21.4;72.5
52343;BME280;38277;51.972;4.624;2022-08-01T08:32:11;102060.0;;;21.6;72.0
52343;BME280;38277;51.972;4.624;2022-08-01T08:36:49;102060.0;;;21.9;71.5
52343;BME280;38277;51.972;4.624;2022-08-01T08:41:09;102060.0;;;22.1;70.5
52343;BME280;38277;51.972;4.624;2022-08-01T08:45:25;102060.0;;;22.3;69.0
52343;BME280;38277;51.972;4.624;2022-08-01T08:49:56;102070.0;;;22.5;67.5
52343;BME280;38277;51.972;4.624;2022-08-01T08:54:26;102060.0;;;22.6;66.0
52343;BME280;38277;51.972;4.624;2022-08-01T09:08:06;102080.0;;;23.2;63.5
52343;BME280;38277;51.972;4.624;2022-08-01T09:17:12;102070.0;;;23.5;61.5
52343;BME280;38277;51.972;4.624;2022-08-01T09:22:02;102090.0;;;23.7;61.5
52343;BME280;38277;51.972;4.624;2022-08-01T09:26:19;102090.0;;;23.9;60.0
52343;BME280;38277;51.972;4.624;2022-08-01T09:35:24;102090.0;;;24.0;59.0
52343;BME280;38277;51.972;4.624;2022-08-01T09:39:27;102090.0;;;24.1;58.5
52343;BME280;38277;51.972;4.624;2022-08-01T09:44:03;102100.0;;;24.2;57.5
52343;BME280;38277;51.972;4.624;2022-08-01T09:57:54;102100.0;;;24.2;57.0
52343;BME280;38277;51.972;4.624;2022-08-01T10:02:30;102100.0;;;24.6;56.0
52343;BME280;38277;51.972;4.624;2022-08-01T10:11:12;102100.0;;;25.3;52.5
52343;BME280;38277;51.972;4.624;2022-08-01T10:15:31;102100.0;;;25.5;53.0
52343;BME280;38277;51.972;4.624;2022-08-01T10:20:07;102090.0;;;25.8;53.0
52343;BME280;38277;51.972;4.624;2022-08-01T10:38:14;102080.0;;;26.7;48.0
52343;BME280;38277;51.972;4.624;2022-08-01T10:42:24;102090.0;;;26.8;47.5
52343;BME280;38277;51.972;4.624;2022-08-01T10:56:20;102080.0;;;26.7;48.0
52343;BME280;38277;51.972;4.624;2022-08-01T11:00:34;102080.0;;;27.0;47.5
52343;BME280;38277;51.972;4.624;2022-08-01T11:05:23;102090.0;;;27.0;47.0
52343;BME280;38277;51.972;4.624;2022-08-01T11:09:43;102100.0;;;26.9;47.0
52343;BME280;38277;51.972;4.624;2022-08-01T11:14:06;102100.0;;;27.2;47.0
52343;BME280;38277;51.972;4.624;2022-08-01T11:18:50;102100.0;;;27.1;46.5
52343;BME280;38277;51.972;4.624;2022-08-01T11:23:19;102100.0;;;26.7;47.5
52343;BME280;38277;51.972;4.624;2022-08-01T11:27:36;102110.0;;;26.3;48.0
52343;BME280;38277;51.972;4.624;2022-08-01T11:32:27;102110.0;;;26.1;48.5
52343;BME280;38277;51.972;4.624;2022-08-01T11:36:23;102100.0;;;26.7;47.5
52343;BME280;38277;51.972;4.624;2022-08-01T11:41:26;102100.0;;;27.9;43.5
52343;BME280;38277;51.972;4.624;2022-08-01T11:45:47;102100.0;;;27.7;43.5
52343;BME280;38277;51.972;4.624;2022-08-01T11:50:30;102100.0;;;27.3;45.5
52343;BME280;38277;51.972;4.624;2022-08-01T11:54:28;102100.0;;;28.7;43.0
52343;BME280;38277;51.972;4.624;2022-08-01T11:58:58;102090.0;;;30.5;39.5
52343;BME280;38277;51.972;4.624;2022-08-01T12:08:08;102090.0;;;34.1;32.0
52343;BME280;38277;51.972;4.624;2022-08-01T12:12:42;102080.0;;;34.9;30.0
52343;BME280;38277;51.972;4.624;2022-08-01T12:17:04;102090.0;;;34.4;28.5
52343;BME280;38277;51.972;4.624;2022-08-01T12:21:30;102100.0;;;32.9;29.5
52343;BME280;38277;51.972;4.624;2022-08-01T12:26:03;102090.0;;;32.8;32.0
52343;BME280;38277;51.972;4.624;2022-08-01T12:30:27;102100.0;;;32.6;32.0
52343;BME280;38277;51.972;4.624;2022-08-01T12:35:01;102090.0;;;31.2;34.0
52343;BME280;38277;51.972;4.624;2022-08-01T12:39:31;102090.0;;;29.9;35.5
52343;BME280;38277;51.972;4.624;2022-08-01T12:44:13;102100.0;;;29.5;37.0
52343;BME280;38277;51.972;4.624;2022-08-01T12:57:45;102090.0;;;31.2;34.5
52343;BME280;38277;51.972;4.624;2022-08-01T13:02:15;102090.0;;;31.8;33.0
52343;BME280;38277;51.972;4.624;2022-08-01T13:06:52;102090.0;;;32.4;30.5
52343;BME280;38277;51.972;4.624;2022-08-01T13:11:19;102090.0;;;31.9;31.5
52343;BME280;38277;51.972;4.624;2022-08-01T13:15:46;102080.0;;;32.9;31.0
52343;BME280;38277;51.972;4.624;2022-08-01T13:20:08;102090.0;;;33.8;29.0
52343;BME280;38277;51.972;4.624;2022-08-01T13:29:05;102070.0;;;32.5;30.0
52343;BME280;38277;51.972;4.624;2022-08-01T13:33:40;102080.0;;;33.2;29.0
52343;BME280;38277;51.972;4.624;2022-08-01T13:38:22;102080.0;;;33.7;28.0
52343;BME280;38277;51.972;4.624;2022-08-01T13:42:43;102070.0;;;34.0;27.5
52343;BME280;38277;51.972;4.624;2022-08-01T13:47:05;102070.0;;;33.4;28.0
52343;BME280;38277;51.972;4.624;2022-08-01T13:51:39;102060.0;;;32.6;29.0
52343;BME280;38277;51.972;4.624;2022-08-01T13:56:19;102060.0;;;34.6;26.5
52343;BME280;38277;51.972;4.624;2022-08-01T14:00:24;102050.0;;;37.5;22.5
52343;BME280;38277;51.972;4.624;2022-08-01T14:05:12;102060.0;;;38.8;21.0
52343;BME280;38277;51.972;4.624;2022-08-01T14:09:50;102050.0;;;40.0;19.5
52343;BME280;38277;51.972;4.624;2022-08-01T14:13:54;102040.0;;;41.5;18.0
52343;BME280;38277;51.972;4.624;2022-08-01T14:22:53;102040.0;;;36.9;21.0
52343;BME280;38277;51.972;4.624;2022-08-01T14:27:35;102040.0;;;37.8;20.5
52343;BME280;38277;51.972;4.624;2022-08-01T14:32:04;102040.0;;;39.8;19.0
52343;BME280;38277;51.972;4.624;2022-08-01T14:41:33;102030.0;;;41.1;17.5
52343;BME280;38277;51.972;4.624;2022-08-01T14:50:20;102030.0;;;40.9;16.5
52343;BME280;38277;51.972;4.624;2022-08-01T14:54:26;102040.0;;;41.9;16.0
52343;BME280;38277;51.972;4.624;2022-08-01T14:59:14;102030.0;;;42.8;15.0
52343;BME280;38277;51.972;4.624;2022-08-01T15:03:36;102040.0;;;43.3;15.0
52343;BME280;38277;51.972;4.624;2022-08-01T15:08:15;102050.0;;;43.7;15.0
52343;BME280;38277;51.972;4.624;2022-08-01T15:12:42;102050.0;;;43.6;14.5
52343;BME280;38277;51.972;4.624;2022-08-01T15:17:09;102050.0;;;43.4;14.5
52343;BME280;38277;51.972;4.624;2022-08-01T15:21:49;102050.0;;;40.4;16.5
52343;BME280;38277;51.972;4.624;2022-08-01T15:26:16;102050.0;;;39.4;18.0
52343;BME280;38277;51.972;4.624;2022-08-01T15:30:31;102050.0;;;40.4;17.0
52343;BME280;38277;51.972;4.624;2022-08-01T15:34:53;102040.0;;;41.6;17.0
52343;BME280;38277;51.972;4.624;2022-08-01T15:39:39;102040.0;;;42.4;16.5
52343;BME280;38277;51.972;4.624;2022-08-01T15:43:58;102040.0;;;42.5;16.0
52343;BME280;38277;51.972;4.624;2022-08-01T15:48:45;102030.0;;;42.6;16.0
52343;BME280;38277;51.972;4.624;2022-08-01T15:53:06;102030.0;;;42.7;16.0
52343;BME280;38277;51.972;4.624;2022-08-01T15:57:31;102030.0;;;42.7;15.5
52343;BME280;38277;51.972;4.624;2022-08-01T16:01:54;102030.0;;;42.8;15.0
52343;BME280;38277;51.972;4.624;2022-08-01T16:06:25;102020.0;;;42.7;15.5
52343;BME280;38277;51.972;4.624;2022-08-01T16:11:21;102030.0;;;41.5;15.5
52343;BME280;38277;51.972;4.624;2022-08-01T16:15:51;102020.0;;;38.7;18.0
52343;BME280;38277;51.972;4.624;2022-08-01T16:20:08;102020.0;;;36.2;20.5
52343;BME280;38277;51.972;4.624;2022-08-01T16:24:50;102030.0;;;34.2;22.5
52343;BME280;38277;51.972;4.624;2022-08-01T16:29:01;102020.0;;;32.6;24.5
52343;BME280;38277;51.972;4.624;2022-08-01T16:33:30;102020.0;;;31.3;26.0
52343;BME280;38277;51.972;4.624;2022-08-01T16:38:21;102030.0;;;30.4;27.5
52343;BME280;38277;51.972;4.624;2022-08-01T16:47:17;102030.0;;;29.6;28.5
52343;BME280;38277;51.972;4.624;2022-08-01T16:51:23;102040.0;;;30.1;28.0
52343;BME280;38277;51.972;4.624;2022-08-01T16:56:05;102030.0;;;29.7;28.0
52343;BME280;38277;51.972;4.624;2022-08-01T17:05:22;102040.0;;;28.5;29.0
52343;BME280;38277;51.972;4.624;2022-08-01T17:09:30;102040.0;;;28.1;29.5
52343;BME280;38277;51.972;4.624;2022-08-01T17:14:10;102040.0;;;27.7;30.5
52343;BME280;38277;51.972;4.624;2022-08-01T17:18:30;102030.0;;;27.3;30.5
52343;BME280;38277;51.972;4.624;2022-08-01T17:23:16;102030.0;;;27.0;31.5
52343;BME280;38277;51.972;4.624;2022-08-01T17:27:28;102030.0;;;26.9;31.5
52343;BME280;38277;51.972;4.624;2022-08-01T17:32:13;102020.0;;;26.8;32.0
52343;BME280;38277;51.972;4.624;2022-08-01T17:41:09;102040.0;;;26.9;33.0
52343;BME280;38277;51.972;4.624;2022-08-01T17:45:48;102040.0;;;26.7;33.5
52343;BME280;38277;51.972;4.624;2022-08-01T17:50:06;102050.0;;;26.6;34.5
52343;BME280;38277;51.972;4.624;2022-08-01T17:58:55;102040.0;;;26.4;35.0
52343;BME280;38277;51.972;4.624;2022-08-01T18:03:51;102040.0;;;26.2;35.5
52343;BME280;38277;51.972;4.624;2022-08-01T18:08:21;102060.0;;;26.0;35.5
52343;BME280;38277;51.972;4.624;2022-08-01T18:17:00;102050.0;;;25.6;36.5
52343;BME280;38277;51.972;4.624;2022-08-01T18:21:40;102050.0;;;25.3;36.5
52343;BME280;38277;51.972;4.624;2022-08-01T18:26:19;102050.0;;;25.1;37.5
52343;BME280;38277;51.972;4.624;2022-08-01T18:30:33;102040.0;;;24.9;38.0
52343;BME280;38277;51.972;4.624;2022-08-01T18:35:25;102050.0;;;24.7;38.5
52343;BME280;38277;51.972;4.624;2022-08-01T18:39:48;102050.0;;;24.5;39.0
52343;BME280;38277;51.972;4.624;2022-08-01T18:44:13;102050.0;;;24.3;39.5
52343;BME280;38277;51.972;4.624;2022-08-01T18:48:29;102060.0;;;24.1;39.5
52343;BME280;38277;51.972;4.624;2022-08-01T18:53:09;102060.0;;;24.0;40.0
52343;BME280;38277;51.972;4.624;2022-08-01T18:57:35;102060.0;;;23.8;41.0
52343;BME280;38277;51.972;4.624;2022-08-01T19:02:22;102070.0;;;23.6;41.5
52343;BME280;38277;51.972;4.624;2022-08-01T19:11:29;102070.0;;;23.3;43.0
52343;BME280;38277;51.972;4.624;2022-08-01T19:15:35;102070.0;;;23.1;43.5
52343;BME280;38277;51.972;4.624;2022-08-01T19:19:59;102080.0;;;23.0;43.5
52343;BME280;38277;51.972;4.624;2022-08-01T19:24:50;102080.0;;;22.8;44.0
52343;BME280;38277;51.972;4.624;2022-08-01T19:29:12;102080.0;;;22.6;43.5
52343;BME280;38277;51.972;4.624;2022-08-01T19:33:37;102080.0;;;22.5;44.0
52343;BME280;38277;51.972;4.624;2022-08-01T19:38:20;102080.0;;;22.4;44.0
52343;BME280;38277;51.972;4.624;2022-08-01T19:46:57;102090.0;;;22.1;44.0
52343;BME280;38277;51.972;4.624;2022-08-01T19:51:50;102090.0;;;22.0;44.0
52343;BME280;38277;51.972;4.624;2022-08-01T19:56:12;102080.0;;;21.9;44.0
52343;BME280;38277;51.972;4.624;2022-08-01T20:00:37;102090.0;;;21.8;43.5
52343;BME280;38277;51.972;4.624;2022-08-01T20:04:53;102100.0;;;21.7;44.0
52343;BME280;38277;51.972;4.624;2022-08-01T20:13:54;102090.0;;;21.4;45.0
52343;BME280;38277;51.972;4.624;2022-08-01T20:23:22;102090.0;;;21.2;45.5
52343;BME280;38277;51.972;4.624;2022-08-01T20:27:43;102090.0;;;21.1;46.0
52343;BME280;38277;51.972;4.624;2022-08-01T20:32:08;102100.0;;;21.0;46.5
52343;BME280;38277;51.972;4.624;2022-08-01T20:36:27;102090.0;;;20.9;46.5
52343;BME280;38277;51.972;4.624;2022-08-01T20:41:07;102100.0;;;20.8;47.0
52343;BME280;38277;51.972;4.624;2022-08-01T20:45:47;102090.0;;;20.7;47.0
52343;BME280;38277;51.972;4.624;2022-08-01T20:50:11;102100.0;;;20.6;48.0
52343;BME280;38277;51.972;4.624;2022-08-01T20:59:17;102100.0;;;20.5;49.0
52343;BME280;38277;51.972;4.624;2022-08-01T21:03:51;102100.0;;;20.4;49.0
52343;BME280;38277;51.972;4.624;2022-08-01T21:07:58;102100.0;;;20.3;49.5
52343;BME280;38277;51.972;4.624;2022-08-01T21:12:47;102100.0;;;20.2;49.5
52343;BME280;38277;51.972;4.624;2022-08-01T21:17:00;102090.0;;;20.1;49.5
52343;BME280;38277;51.972;4.624;2022-08-01T21:21:43;102100.0;;;20.1;50.0
52343;BME280;38277;51.972;4.624;2022-08-01T21:26:02;102100.0;;;20.0;50.5
52343;BME280;38277;51.972;4.624;2022-08-01T21:35:20;102080.0;;;19.9;51.5
52343;BME280;38277;51.972;4.624;2022-08-01T21:39:42;102090.0;;;19.9;52.0
52343;BME280;38277;51.972;4.624;2022-08-01T21:43:59;102080.0;;;19.8;52.0
52343;BME280;38277;51.972;4.624;2022-08-01T21:48:49;102090.0;;;19.8;52.0
52343;BME280;38277;51.972;4.624;2022-08-01T21:53:45;102090.0;;;19.7;52.0
52343;BME280;38277;51.972;4.624;2022-08-01T21:58:33;102090.0;;;19.7;52.0
52343;BME280;38277;51.972;4.624;2022-08-01T22:02:07;102090.0;;;19.6;52.5
52343;BME280;38277;51.972;4.624;2022-08-01T22:11:04;102070.0;;;19.6;53.0
52343;BME280;38277;51.972;4.624;2022-08-01T22:15:53;102080.0;;;19.5;53.0
52343;BME280;38277;51.972;4.624;2022-08-01T22:20:14;102080.0;;;19.5;53.0
52343;BME280;38277;51.972;4.624;2022-08-01T22:29:04;102070.0;;;19.3;54.0
52343;BME280;38277;51.972;4.624;2022-08-01T22:33:54;102070.0;;;19.3;54.0
52343;BME280;38277;51.972;4.624;2022-08-01T22:37:55;102080.0;;;19.2;54.5
52343;BME280;38277;51.972;4.624;2022-08-01T22:42:53;102070.0;;;19.2;54.5
52343;BME280;38277;51.972;4.624;2022-08-01T22:47:58;102070.0;;;19.2;54.0
52343;BME280;38277;51.972;4.624;2022-08-01T22:51:50;102070.0;;;19.2;54.5
52343;BME280;38277;51.972;4.624;2022-08-01T23:00:41;102060.0;;;19.1;55.0
52343;BME280;38277;51.972;4.624;2022-08-01T23:05:03;102050.0;;;19.0;55.5
52343;BME280;38277;51.972;4.624;2022-08-01T23:09:38;102050.0;;;18.9;55.0
52343;BME280;38277;51.972;4.624;2022-08-01T23:13:54;102060.0;;;18.9;55.5
52343;BME280;38277;51.972;4.624;2022-08-01T23:23:22;102060.0;;;18.8;55.5
52343;BME280;38277;51.972;4.624;2022-08-01T23:27:45;102040.0;;;18.8;55.5
52343;BME280;38277;51.972;4.624;2022-08-01T23:31:56;102030.0;;;18.8;56.0
52343;BME280;38277;51.972;4.624;2022-08-01T23:36:30;102040.0;;;18.8;56.0
52343;BME280;38277;51.972;4.624;2022-08-01T23:41:03;102050.0;;;18.8;56.0
52343;BME280;38277;51.972;4.624;2022-08-01T23:45:53;102040.0;;;18.8;56.0
52343;BME280;38277;51.972;4.624;2022-08-01T23:50:10;102040.0;;;18.8;55.5
52343;BME280;38277;51.972;4.624;2022-08-01T23:55:06;102040.0;;;18.9;55.5
52343;BME280;38277;51.972;4.624;2022-08-01T23:59:08;102040.0;;;18.9;55.5
